Time;durP1;ratioP1;P1;durP2;ratioP2;P2;SDS_P1;SDS_P2;PMS_P1;PMS_P2;Temp;Humidity;BMP_temperature;BMP_pressure;BME280_temperature;BME280_humidity;BME280_pressure;Samples;Min_cycle;Max_cycle;Signal;HPM_P1;HPM_P2
2024/01/07 00:00:13;;;;;;;0.40;0.40;;;;;;;;;;4981093;28;20234;-71
2024/01/07 00:02:39;;;;;;;0.30;0.30;;;;;;;;;;4986594;28;20213;-69
2024/01/07 00:05:06;;;;;;;0.30;0.30;;;;;;;;;;5011944;28;20224;-69
2024/01/07 00:07:33;;;;;;;0.20;0.20;;;;;;;;;;5009504;28;20236;-70
2024/01/07 00:09:59;;;;;;;0.27;0.27;;;;;;;;;;4984132;28;20225;-71
2024/01/07 00:12:26;;;;;;;0.30;0.30;;;;;;;;;;4987911;28;20233;-71
2024/01/07 00:14:52;;;;;;;0.27;0.27;;;;;;;;;;4987498;28;20303;-71
2024/01/07 00:17:18;;;;;;;0.30;0.30;;;;;;;;;;4985744;28;20233;-70
2024/01/07 00:19:45;;;;;;;0.20;0.20;;;;;;;;;;4983529;28;20591;-70
2024/01/07 00:22:11;;;;;;;2.83;1.23;;;;;;;;;;4984877;28;20251;-70
2024/01/07 00:24:38;;;;;;;0.53;0.53;;;;;;;;;;4981531;28;20624;-71
2024/01/07 00:27:04;;;;;;;0.30;0.30;;;;;;;;;;4983577;28;20242;-70
2024/01/07 00:29:31;;;;;;;0.43;0.43;;;;;;;;;;5000858;28;20241;-70
2024/01/07 00:31:57;;;;;;;0.30;0.30;;;;;;;;;;4981161;28;20721;-70
2024/01/07 00:34:24;;;;;;;0.30;0.30;;;;;;;;;;4979628;28;20232;-70
2024/01/07 00:36:50;;;;;;;0.20;0.20;;;;;;;;;;4977354;28;20237;-70
2024/01/07 00:39:17;;;;;;;1.57;1.47;;;;;;;;;;4983230;28;20221;-70
2024/01/07 00:41:43;;;;;;;0.30;0.30;;;;;;;;;;4982460;28;20240;-70
2024/01/07 00:44:09;;;;;;;0.20;0.20;;;;;;;;;;4983633;28;20238;-71
2024/01/07 00:46:36;;;;;;;0.30;0.30;;;;;;;;;;4984673;28;20225;-71
2024/01/07 00:49:02;;;;;;;0.20;0.20;;;;;;;;;;4989550;28;20236;-73
2024/01/07 00:51:29;;;;;;;0.20;0.20;;;;;;;;;;4984625;28;20229;-72
2024/01/07 00:53:55;;;;;;;0.30;0.30;;;;;;;;;;4983849;28;20233;-72
2024/01/07 00:56:25;;;;;;;0.30;0.30;;;;;;;;;;4979703;28;20287;-72
2024/01/07 00:58:52;;;;;;;0.30;0.30;;;;;;;;;;4977951;28;20705;-72
2024/01/07 01:01:18;;;;;;;0.30;0.30;;;;;;;;;;4988056;28;20232;-71
2024/01/07 01:03:44;;;;;;;0.30;0.30;;;;;;;;;;4983691;28;20229;-71
2024/01/07 01:06:11;;;;;;;0.30;0.30;;;;;;;;;;4982942;28;20271;-72
2024/01/07 01:08:38;;;;;;;0.20;0.20;;;;;;;;;;4994340;28;20588;-72
2024/01/07 01:11:04;;;;;;;0.30;0.30;;;;;;;;;;5011220;28;20741;-72
2024/01/07 01:13:30;;;;;;;0.20;0.20;;;;;;;;;;4985214;28;20366;-72
2024/01/07 01:15:57;;;;;;;0.20;0.20;;;;;;;;;;4977434;28;20287;-71
2024/01/07 01:18:23;;;;;;;0.20;0.20;;;;;;;;;;4984932;28;20623;-71
2024/01/07 01:20:49;;;;;;;0.20;0.20;;;;;;;;;;4984488;28;20228;-70
2024/01/07 01:23:16;;;;;;;0.20;0.20;;;;;;;;;;4985834;28;20241;-70
2024/01/07 01:25:42;;;;;;;0.30;0.30;;;;;;;;;;4981440;28;20226;-71
2024/01/07 01:28:09;;;;;;;0.30;0.30;;;;;;;;;;4985164;28;20237;-72
2024/01/07 01:30:35;;;;;;;0.30;0.30;;;;;;;;;;5000766;28;20245;-71
2024/01/07 01:33:02;;;;;;;0.30;0.30;;;;;;;;;;4979712;28;20237;-71
2024/01/07 01:35:29;;;;;;;0.70;0.70;;;;;;;;;;4978150;28;20229;-72
2024/01/07 01:37:55;;;;;;;0.20;0.20;;;;;;;;;;4982487;28;20236;-72
2024/01/07 01:40:21;;;;;;;0.20;0.20;;;;;;;;;;4985945;28;20252;-71
2024/01/07 01:42:48;;;;;;;0.30;0.30;;;;;;;;;;4983836;28;20296;-70
2024/01/07 01:45:14;;;;;;;0.30;0.30;;;;;;;;;;4972328;28;20599;-71
2024/01/07 01:47:41;;;;;;;0.20;0.20;;;;;;;;;;4986782;28;20233;-72
2024/01/07 01:50:08;;;;;;;0.40;0.40;;;;;;;;;;4977831;28;20237;-72
2024/01/07 01:52:36;;;;;;;0.40;0.40;;;;;;;;;;4972249;28;20233;-72
2024/01/07 01:55:02;;;;;;;0.30;0.30;;;;;;;;;;4976925;28;21668;-71
2024/01/07 01:57:34;;;;;;;0.30;0.30;;;;;;;;;;4973655;28;20237;-69
2024/01/07 02:00:05;;;;;;;2.77;0.87;;;;;;;;;;4984167;28;20283;-72
2024/01/07 02:02:34;;;;;;;0.33;0.33;;;;;;;;;;4990172;28;20660;-69
2024/01/07 02:05:03;;;;;;;0.20;0.20;;;;;;;;;;4977931;28;20809;-72
2024/01/07 02:07:31;;;;;;;0.30;0.30;;;;;;;;;;4977361;28;20236;-72
2024/01/07 02:09:57;;;;;;;0.30;0.30;;;;;;;;;;4979193;28;20229;-71
2024/01/07 02:12:24;;;;;;;0.20;0.20;;;;;;;;;;4979854;28;20230;-71
2024/01/07 02:14:50;;;;;;;0.30;0.30;;;;;;;;;;4980685;28;20257;-71
2024/01/07 02:17:16;;;;;;;0.30;0.30;;;;;;;;;;4976056;28;20237;-71
2024/01/07 02:19:43;;;;;;;0.30;0.30;;;;;;;;;;5005753;28;20260;-71
2024/01/07 02:22:10;;;;;;;0.30;0.30;;;;;;;;;;4981543;28;20233;-72
2024/01/07 02:24:36;;;;;;;0.20;0.20;;;;;;;;;;4979991;28;20257;-71
2024/01/07 02:27:03;;;;;;;0.30;0.30;;;;;;;;;;4982759;28;20262;-72
2024/01/07 02:29:29;;;;;;;0.23;0.23;;;;;;;;;;4982620;28;20225;-72
2024/01/07 02:31:56;;;;;;;0.20;0.20;;;;;;;;;;4970181;28;20229;-71
2024/01/07 02:34:22;;;;;;;0.30;0.30;;;;;;;;;;4980613;28;20233;-71
2024/01/07 02:36:49;;;;;;;0.30;0.30;;;;;;;;;;4991979;28;20229;-70
2024/01/07 02:39:15;;;;;;;0.30;0.30;;;;;;;;;;4976775;28;20233;-71
2024/01/07 02:41:41;;;;;;;0.30;0.30;;;;;;;;;;4987783;28;20217;-68
2024/01/07 02:44:08;;;;;;;0.30;0.30;;;;;;;;;;5008228;28;20232;-69
2024/01/07 02:46:38;;;;;;;0.30;0.30;;;;;;;;;;5004108;28;20424;-72
2024/01/07 02:49:05;;;;;;;0.30;0.30;;;;;;;;;;4984899;28;20718;-71
2024/01/07 02:51:32;;;;;;;0.20;0.20;;;;;;;;;;4982795;28;20264;-70
2024/01/07 02:53:58;;;;;;;0.30;0.30;;;;;;;;;;4977708;28;20751;-70
2024/01/07 02:56:45;;;;;;;0.30;0.30;;;;;;;;;;4977876;28;20252;-72
2024/01/07 02:59:11;;;;;;;0.30;0.30;;;;;;;;;;4977094;28;20229;-72
2024/01/07 03:01:40;;;;;;;0.20;0.20;;;;;;;;;;4980396;28;20355;-72
2024/01/07 03:04:12;;;;;;;0.30;0.30;;;;;;;;;;4987394;28;20233;-71
2024/01/07 03:06:38;;;;;;;0.30;0.30;;;;;;;;;;4984436;28;20260;-72
2024/01/07 03:09:05;;;;;;;0.20;0.20;;;;;;;;;;4984516;28;20269;-71
2024/01/07 03:11:31;;;;;;;0.23;0.23;;;;;;;;;;4984373;28;21464;-72
2024/01/07 03:13:58;;;;;;;0.30;0.30;;;;;;;;;;4986576;28;20233;-72
2024/01/07 03:16:46;;;;;;;0.30;0.30;;;;;;;;;;4987169;28;20240;-71
2024/01/07 03:19:13;;;;;;;0.20;0.20;;;;;;;;;;4986249;28;20244;-69
2024/01/07 03:21:39;;;;;;;0.30;0.30;;;;;;;;;;4985985;28;20253;-71
2024/01/07 03:24:06;;;;;;;0.30;0.30;;;;;;;;;;4981195;28;20240;-71
2024/01/07 03:26:33;;;;;;;0.30;0.30;;;;;;;;;;4977499;28;20237;-71
2024/01/07 03:29:00;;;;;;;0.20;0.20;;;;;;;;;;4974924;28;20236;-71
2024/01/07 03:31:27;;;;;;;0.30;0.30;;;;;;;;;;4980406;28;20232;-72
2024/01/07 03:33:54;;;;;;;1.07;0.97;;;;;;;;;;4993069;28;20257;-72
2024/01/07 03:36:20;;;;;;;0.20;0.20;;;;;;;;;;4975802;28;20705;-70
2024/01/07 03:38:47;;;;;;;0.20;0.20;;;;;;;;;;4981250;28;20241;-71
2024/01/07 03:41:18;;;;;;;0.20;0.20;;;;;;;;;;4981412;28;20322;-73
2024/01/07 03:43:46;;;;;;;0.30;0.30;;;;;;;;;;4984342;28;20233;-71
2024/01/07 03:46:13;;;;;;;0.30;0.30;;;;;;;;;;4980862;28;20236;-71
2024/01/07 03:48:41;;;;;;;0.30;0.30;;;;;;;;;;4985828;28;20233;-71
2024/01/07 03:51:08;;;;;;;0.20;0.20;;;;;;;;;;4981384;28;20234;-71
2024/01/07 03:53:34;;;;;;;0.30;0.30;;;;;;;;;;4983335;28;20253;-72
2024/01/07 03:56:01;;;;;;;0.30;0.30;;;;;;;;;;4983042;28;20229;-72
2024/01/07 03:58:28;;;;;;;0.30;0.30;;;;;;;;;;4979125;28;20233;-71
2024/01/07 04:00:54;;;;;;;0.30;0.30;;;;;;;;;;4981407;28;20233;-71
2024/01/07 04:03:20;;;;;;;0.30;0.30;;;;;;;;;;4977983;28;20280;-72
2024/01/07 04:05:47;;;;;;;0.30;0.30;;;;;;;;;;4977710;28;20244;-72
2024/01/07 04:08:15;;;;;;;0.30;0.30;;;;;;;;;;4978243;28;20229;-72
2024/01/07 04:10:42;;;;;;;0.30;0.30;;;;;;;;;;4974860;28;20360;-72
2024/01/07 04:13:09;;;;;;;0.30;0.30;;;;;;;;;;4979092;28;20229;-72
2024/01/07 04:15:35;;;;;;;0.30;0.30;;;;;;;;;;4977812;28;20232;-72
2024/01/07 04:18:03;;;;;;;0.30;0.30;;;;;;;;;;4978765;28;20674;-72
2024/01/07 04:20:30;;;;;;;0.20;0.20;;;;;;;;;;4981088;28;20701;-71
2024/01/07 04:23:02;;;;;;;0.30;0.30;;;;;;;;;;4978070;28;20720;-72
2024/01/07 04:25:29;;;;;;;0.30;0.30;;;;;;;;;;4980762;28;20237;-71
2024/01/07 04:27:56;;;;;;;0.30;0.30;;;;;;;;;;4976258;28;20236;-71
2024/01/07 04:30:23;;;;;;;0.30;0.30;;;;;;;;;;4983258;28;20229;-72
2024/01/07 04:32:52;;;;;;;0.20;0.20;;;;;;;;;;4985686;28;20246;-72
2024/01/07 04:35:18;;;;;;;0.30;0.30;;;;;;;;;;4978548;28;20264;-72
2024/01/07 04:37:45;;;;;;;0.30;0.30;;;;;;;;;;4980364;28;20244;-72
2024/01/07 04:40:12;;;;;;;0.30;0.30;;;;;;;;;;4975505;28;20230;-70
2024/01/07 04:42:38;;;;;;;0.30;0.30;;;;;;;;;;4981934;28;20229;-72
2024/01/07 04:45:05;;;;;;;0.30;0.30;;;;;;;;;;4975408;28;20237;-71
2024/01/07 04:47:36;;;;;;;0.30;0.30;;;;;;;;;;4982891;28;20232;-71
2024/01/07 04:50:04;;;;;;;0.30;0.30;;;;;;;;;;4977907;28;20233;-71
2024/01/07 04:52:30;;;;;;;0.30;0.30;;;;;;;;;;4969612;28;20222;-72
2024/01/07 04:54:56;;;;;;;1.27;0.80;;;;;;;;;;4981484;28;20237;-72
2024/01/07 04:57:23;;;;;;;0.30;0.30;;;;;;;;;;4999797;28;20816;-72
2024/01/07 04:59:50;;;;;;;0.30;0.30;;;;;;;;;;4984932;28;20236;-72
2024/01/07 05:02:17;;;;;;;0.27;0.27;;;;;;;;;;4975766;28;20234;-71
2024/01/07 05:04:43;;;;;;;0.20;0.20;;;;;;;;;;4987504;28;20229;-72
2024/01/07 05:07:10;;;;;;;0.30;0.30;;;;;;;;;;4988571;28;20229;-72
2024/01/07 05:09:36;;;;;;;0.30;0.30;;;;;;;;;;4983233;28;20737;-72
2024/01/07 05:12:03;;;;;;;0.30;0.30;;;;;;;;;;4985792;28;20235;-71
2024/01/07 05:14:30;;;;;;;0.30;0.30;;;;;;;;;;4985275;28;20232;-72
2024/01/07 05:16:56;;;;;;;0.30;0.30;;;;;;;;;;4989927;28;20238;-72
2024/01/07 05:19:23;;;;;;;0.20;0.20;;;;;;;;;;5001712;28;20221;-69
2024/01/07 05:21:50;;;;;;;0.20;0.20;;;;;;;;;;5008820;28;20213;-69
2024/01/07 05:24:16;;;;;;;0.30;0.30;;;;;;;;;;5005765;28;20244;-70
2024/01/07 05:26:44;;;;;;;0.20;0.20;;;;;;;;;;4993299;28;20724;-72
2024/01/07 05:29:11;;;;;;;0.30;0.30;;;;;;;;;;4985383;28;20320;-72
2024/01/07 05:31:39;;;;;;;0.30;0.30;;;;;;;;;;4984101;28;20324;-71
2024/01/07 05:34:07;;;;;;;0.30;0.30;;;;;;;;;;4986317;28;20242;-71
2024/01/07 05:36:33;;;;;;;0.30;0.30;;;;;;;;;;4988772;28;20595;-72
2024/01/07 05:39:00;;;;;;;0.20;0.20;;;;;;;;;;4991974;28;20232;-72
2024/01/07 05:41:26;;;;;;;0.30;0.30;;;;;;;;;;4992016;28;20228;-72
2024/01/07 05:43:53;;;;;;;0.30;0.30;;;;;;;;;;5002473;28;20233;-71
2024/01/07 05:46:20;;;;;;;0.30;0.30;;;;;;;;;;4984722;28;20245;-72
2024/01/07 05:48:48;;;;;;;0.70;0.70;;;;;;;;;;4977740;28;20597;-73
2024/01/07 05:51:15;;;;;;;0.30;0.30;;;;;;;;;;4994045;28;20244;-70
2024/01/07 05:53:44;;;;;;;0.30;0.30;;;;;;;;;;4978720;28;20225;-72
2024/01/07 05:56:10;;;;;;;0.30;0.30;;;;;;;;;;4985626;28;20599;-72
2024/01/07 05:58:37;;;;;;;0.30;0.30;;;;;;;;;;4982246;28;20312;-71
2024/01/07 06:01:03;;;;;;;0.30;0.30;;;;;;;;;;4984301;28;20328;-71
2024/01/07 06:03:30;;;;;;;0.30;0.30;;;;;;;;;;4979531;28;21313;-72
2024/01/07 06:05:58;;;;;;;0.30;0.30;;;;;;;;;;4988165;28;20244;-72
2024/01/07 06:08:26;;;;;;;0.30;0.30;;;;;;;;;;4982151;28;20233;-71
2024/01/07 06:10:52;;;;;;;0.30;0.30;;;;;;;;;;4978498;28;20729;-73
2024/01/07 06:13:18;;;;;;;0.30;0.30;;;;;;;;;;4987692;28;20728;-71
2024/01/07 06:15:45;;;;;;;0.30;0.30;;;;;;;;;;4990498;28;20249;-73
2024/01/07 06:18:11;;;;;;;0.30;0.30;;;;;;;;;;4988299;28;20252;-72
2024/01/07 06:20:38;;;;;;;0.30;0.30;;;;;;;;;;5000199;28;20662;-72
2024/01/07 06:23:04;;;;;;;0.30;0.30;;;;;;;;;;4986290;28;20299;-73
2024/01/07 06:25:30;;;;;;;0.30;0.30;;;;;;;;;;4988954;28;20233;-72
2024/01/07 06:27:57;;;;;;;0.30;0.30;;;;;;;;;;5006634;28;20610;-71
2024/01/07 06:30:24;;;;;;;0.30;0.30;;;;;;;;;;5001320;28;20233;-72
2024/01/07 06:32:52;;;;;;;0.30;0.30;;;;;;;;;;4986769;28;20232;-72
2024/01/07 06:35:19;;;;;;;0.83;0.50;;;;;;;;;;4985925;28;21483;-73
2024/01/07 06:37:45;;;;;;;0.30;0.30;;;;;;;;;;4985679;28;20525;-73
2024/01/07 06:40:11;;;;;;;0.30;0.30;;;;;;;;;;4989780;28;20311;-73
2024/01/07 06:42:38;;;;;;;0.70;0.70;;;;;;;;;;4985235;28;20771;-72
2024/01/07 06:45:05;;;;;;;0.30;0.30;;;;;;;;;;5019356;28;20237;-71
2024/01/07 06:47:31;;;;;;;0.23;0.23;;;;;;;;;;4987923;28;20675;-71
2024/01/07 06:49:58;;;;;;;0.20;0.20;;;;;;;;;;4990926;28;20229;-71
2024/01/07 06:52:24;;;;;;;0.30;0.30;;;;;;;;;;4987790;28;20661;-72
2024/01/07 06:54:51;;;;;;;0.20;0.20;;;;;;;;;;4983779;28;20245;-71
2024/01/07 06:57:17;;;;;;;0.30;0.30;;;;;;;;;;4989583;28;20233;-70
2024/01/07 06:59:44;;;;;;;0.30;0.30;;;;;;;;;;4988508;28;20581;-71
2024/01/07 07:02:10;;;;;;;0.30;0.30;;;;;;;;;;4984234;28;20751;-70
2024/01/07 07:04:37;;;;;;;0.20;0.20;;;;;;;;;;4985079;28;20768;-69
2024/01/07 07:07:03;;;;;;;0.30;0.30;;;;;;;;;;4988593;28;20236;-70
2024/01/07 07:09:30;;;;;;;0.20;0.20;;;;;;;;;;4982235;28;20222;-69
2024/01/07 07:11:56;;;;;;;0.30;0.30;;;;;;;;;;4988296;28;20236;-69
2024/01/07 07:14:23;;;;;;;0.50;0.50;;;;;;;;;;4988129;28;20614;-70
2024/01/07 07:16:49;;;;;;;0.30;0.30;;;;;;;;;;4985620;28;20611;-70
2024/01/07 07:19:16;;;;;;;0.20;0.20;;;;;;;;;;4990476;28;20247;-70
2024/01/07 07:21:44;;;;;;;0.50;0.50;;;;;;;;;;4985286;28;20229;-72
2024/01/07 07:24:10;;;;;;;0.30;0.30;;;;;;;;;;4985978;28;20229;-70
2024/01/07 07:26:40;;;;;;;0.30;0.30;;;;;;;;;;4985582;28;20233;-71
2024/01/07 07:29:09;;;;;;;0.30;0.30;;;;;;;;;;4986170;28;20230;-70
2024/01/07 07:31:36;;;;;;;0.30;0.30;;;;;;;;;;4986762;28;20236;-71
2024/01/07 07:34:04;;;;;;;0.50;0.50;;;;;;;;;;4987567;28;20234;-70
2024/01/07 07:36:34;;;;;;;0.20;0.20;;;;;;;;;;4990265;28;20288;-70
2024/01/07 07:39:01;;;;;;;0.20;0.20;;;;;;;;;;4988759;28;20261;-71
2024/01/07 07:41:28;;;;;;;0.20;0.20;;;;;;;;;;4985889;28;20229;-71
2024/01/07 07:43:55;;;;;;;0.40;0.40;;;;;;;;;;4986351;28;20236;-71
2024/01/07 07:46:21;;;;;;;0.30;0.30;;;;;;;;;;4982853;28;20236;-70
2024/01/07 07:48:48;;;;;;;0.20;0.20;;;;;;;;;;5004095;28;20240;-71
2024/01/07 07:51:15;;;;;;;0.20;0.20;;;;;;;;;;4987436;28;20237;-71
2024/01/07 07:53:41;;;;;;;0.30;0.30;;;;;;;;;;4979981;28;20221;-70
2024/01/07 07:56:08;;;;;;;0.20;0.20;;;;;;;;;;4986210;28;20249;-70
2024/01/07 07:58:34;;;;;;;0.20;0.20;;;;;;;;;;4986291;28;20229;-71
2024/01/07 08:01:01;;;;;;;0.20;0.20;;;;;;;;;;5002500;28;20230;-71
2024/01/07 08:03:29;;;;;;;0.20;0.20;;;;;;;;;;5002384;28;20233;-70
2024/01/07 08:05:55;;;;;;;0.30;0.30;;;;;;;;;;4988412;28;20242;-70
2024/01/07 08:08:22;;;;;;;0.23;0.23;;;;;;;;;;4986317;28;20620;-70
2024/01/07 08:10:48;;;;;;;0.30;0.30;;;;;;;;;;4989039;28;20233;-70
2024/01/07 08:13:14;;;;;;;0.30;0.30;;;;;;;;;;4990060;28;20316;-70
2024/01/07 08:15:41;;;;;;;0.30;0.30;;;;;;;;;;4986599;28;20291;-70
2024/01/07 08:18:07;;;;;;;0.30;0.30;;;;;;;;;;4988078;28;20233;-71
2024/01/07 08:20:34;;;;;;;0.23;0.23;;;;;;;;;;4982072;28;20233;-71
2024/01/07 08:23:01;;;;;;;0.20;0.20;;;;;;;;;;4989336;28;20608;-70
2024/01/07 08:25:27;;;;;;;0.27;0.27;;;;;;;;;;4986960;28;20244;-71
2024/01/07 08:27:53;;;;;;;0.30;0.30;;;;;;;;;;4987642;28;20614;-71
2024/01/07 08:30:20;;;;;;;0.30;0.30;;;;;;;;;;4984781;28;20233;-71
2024/01/07 08:32:47;;;;;;;0.20;0.20;;;;;;;;;;4986069;28;20237;-70
2024/01/07 08:35:16;;;;;;;0.30;0.30;;;;;;;;;;4983359;28;20233;-70
2024/01/07 08:37:46;;;;;;;0.30;0.30;;;;;;;;;;4991889;28;20587;-70
2024/01/07 08:40:13;;;;;;;0.20;0.20;;;;;;;;;;4988697;28;20240;-71
2024/01/07 08:42:40;;;;;;;1.50;0.93;;;;;;;;;;4986331;28;20232;-71
2024/01/07 08:45:07;;;;;;;0.30;0.30;;;;;;;;;;4999607;28;20236;-71
2024/01/07 08:47:35;;;;;;;0.20;0.20;;;;;;;;;;4985898;28;20236;-70
2024/01/07 08:50:08;;;;;;;0.50;0.50;;;;;;;;;;4986834;28;20619;-69
2024/01/07 08:52:35;;;;;;;0.20;0.20;;;;;;;;;;4983199;28;20693;-70
2024/01/07 08:55:03;;;;;;;0.30;0.30;;;;;;;;;;4979993;28;20237;-70
2024/01/07 08:57:29;;;;;;;0.30;0.30;;;;;;;;;;4983147;28;20646;-71
2024/01/07 08:59:59;;;;;;;0.20;0.20;;;;;;;;;;4985658;28;20671;-70
2024/01/07 09:02:26;;;;;;;0.30;0.30;;;;;;;;;;4981442;28;20706;-71
2024/01/07 09:04:52;;;;;;;0.30;0.30;;;;;;;;;;4985506;28;20230;-71
2024/01/07 09:07:19;;;;;;;0.30;0.30;;;;;;;;;;4999472;28;20240;-70
2024/01/07 09:09:45;;;;;;;0.20;0.20;;;;;;;;;;4982311;28;20895;-71
2024/01/07 09:12:12;;;;;;;0.20;0.20;;;;;;;;;;4984252;28;20244;-70
2024/01/07 09:14:38;;;;;;;0.30;0.30;;;;;;;;;;4998185;28;20236;-70
2024/01/07 09:17:05;;;;;;;0.30;0.30;;;;;;;;;;4980324;28;20321;-71
2024/01/07 09:19:31;;;;;;;0.30;0.30;;;;;;;;;;4982624;28;20228;-71
2024/01/07 09:21:59;;;;;;;0.20;0.20;;;;;;;;;;4983312;28;20237;-70
2024/01/07 09:24:26;;;;;;;0.20;0.20;;;;;;;;;;4977253;28;20631;-70
2024/01/07 09:26:52;;;;;;;0.30;0.30;;;;;;;;;;4981644;28;20316;-71
2024/01/07 09:29:20;;;;;;;0.30;0.30;;;;;;;;;;4984386;28;20725;-71
2024/01/07 09:31:46;;;;;;;0.20;0.20;;;;;;;;;;4986169;28;20233;-70
2024/01/07 09:34:12;;;;;;;0.27;0.27;;;;;;;;;;4983375;28;20229;-71
2024/01/07 09:36:39;;;;;;;0.30;0.30;;;;;;;;;;4986667;28;20239;-70
2024/01/07 09:39:06;;;;;;;0.30;0.30;;;;;;;;;;4986310;28;20234;-71
2024/01/07 09:41:33;;;;;;;0.30;0.30;;;;;;;;;;4994034;28;20234;-70
2024/01/07 09:44:01;;;;;;;0.30;0.30;;;;;;;;;;4985125;28;20236;-70
2024/01/07 09:46:29;;;;;;;0.20;0.20;;;;;;;;;;4988065;28;20237;-73
2024/01/07 09:48:55;;;;;;;0.20;0.20;;;;;;;;;;4971772;28;20248;-71
2024/01/07 09:51:23;;;;;;;0.93;0.53;;;;;;;;;;4978121;28;20628;-70
2024/01/07 09:53:55;;;;;;;0.20;0.20;;;;;;;;;;4982473;28;20233;-69
2024/01/07 09:56:39;;;;;;;0.20;0.20;;;;;;;;;;4984253;28;20232;-71
2024/01/07 09:59:06;;;;;;;0.77;0.77;;;;;;;;;;4985473;28;20608;-71
2024/01/07 10:01:35;;;;;;;0.20;0.20;;;;;;;;;;4986508;28;20225;-72
2024/01/07 10:04:02;;;;;;;0.30;0.30;;;;;;;;;;4987803;28;20230;-71
2024/01/07 10:06:28;;;;;;;0.53;0.53;;;;;;;;;;4985719;28;20754;-72
2024/01/07 10:08:55;;;;;;;0.37;0.37;;;;;;;;;;4986109;28;20232;-71
2024/01/07 10:11:22;;;;;;;0.33;0.33;;;;;;;;;;4985848;28;20237;-71
2024/01/07 10:13:51;;;;;;;0.30;0.30;;;;;;;;;;4983418;28;20252;-73
2024/01/07 10:16:17;;;;;;;0.20;0.20;;;;;;;;;;4986359;28;20617;-74
2024/01/07 10:18:43;;;;;;;0.23;0.23;;;;;;;;;;5000764;28;20373;-74
2024/01/07 10:21:11;;;;;;;0.30;0.30;;;;;;;;;;4990571;28;20711;-74
2024/01/07 10:23:37;;;;;;;0.20;0.20;;;;;;;;;;4986960;28;20236;-74
2024/01/07 10:26:05;;;;;;;0.20;0.20;;;;;;;;;;4987291;28;20233;-74
2024/01/07 10:28:45;;;;;;;0.20;0.20;;;;;;;;;;4989239;28;20324;-73
2024/01/07 10:31:12;;;;;;;0.30;0.30;;;;;;;;;;4987615;28;20229;-74
2024/01/07 10:33:40;;;;;;;0.50;0.50;;;;;;;;;;4990021;28;20804;-74
2024/01/07 10:36:07;;;;;;;0.20;0.20;;;;;;;;;;4987128;28;20233;-74
2024/01/07 10:38:36;;;;;;;0.20;0.20;;;;;;;;;;5001621;28;20245;-75
2024/01/07 10:41:04;;;;;;;0.30;0.30;;;;;;;;;;5011899;28;20230;-75
2024/01/07 10:43:33;;;;;;;0.20;0.20;;;;;;;;;;5000159;28;20260;-73
2024/01/07 10:46:01;;;;;;;0.20;0.20;;;;;;;;;;4988668;28;20241;-73
2024/01/07 10:48:32;;;;;;;0.30;0.30;;;;;;;;;;4981055;28;20283;-74
2024/01/07 10:51:00;;;;;;;0.57;0.57;;;;;;;;;;4995823;28;20233;-73
2024/01/07 10:53:31;;;;;;;0.20;0.20;;;;;;;;;;4980354;28;20236;-74
2024/01/07 10:56:06;;;;;;;0.20;0.20;;;;;;;;;;4991394;28;20788;-74
2024/01/07 10:58:34;;;;;;;0.20;0.20;;;;;;;;;;4980226;28;20237;-72
2024/01/07 11:01:03;;;;;;;0.20;0.20;;;;;;;;;;4985686;28;20248;-73
2024/01/07 11:03:40;;;;;;;0.30;0.30;;;;;;;;;;4999986;28;20288;-74
2024/01/07 11:06:25;;;;;;;0.20;0.20;;;;;;;;;;4973962;28;20331;-73
2024/01/07 11:08:57;;;;;;;0.20;0.20;;;;;;;;;;5020518;28;20240;-73
2024/01/07 11:11:35;;;;;;;0.30;0.30;;;;;;;;;;4980446;28;20233;-73
2024/01/07 11:14:02;;;;;;;0.30;0.30;;;;;;;;;;4985907;28;20240;-73
2024/01/07 11:16:42;;;;;;;0.27;0.27;;;;;;;;;;4985836;28;20680;-74
2024/01/07 11:19:08;;;;;;;0.50;0.50;;;;;;;;;;4990768;28;20237;-73
2024/01/07 11:21:35;;;;;;;0.30;0.30;;;;;;;;;;4989734;28;20229;-74
2024/01/07 11:24:02;;;;;;;0.30;0.30;;;;;;;;;;4989968;28;20225;-71
2024/01/07 11:26:29;;;;;;;0.30;0.30;;;;;;;;;;4996662;28;20245;-73
2024/01/07 11:28:57;;;;;;;0.20;0.20;;;;;;;;;;5001668;28;20233;-73
2024/01/07 11:31:38;;;;;;;0.87;0.87;;;;;;;;;;4966621;28;20610;-73
2024/01/07 11:34:06;;;;;;;0.20;0.20;;;;;;;;;;4971254;28;20229;-73
2024/01/07 11:36:36;;;;;;;0.20;0.20;;;;;;;;;;4971767;28;21275;-73
2024/01/07 11:39:06;;;;;;;0.60;0.60;;;;;;;;;;4971876;28;20238;-73
2024/01/07 11:41:33;;;;;;;0.30;0.30;;;;;;;;;;4970610;28;20225;-73
2024/01/07 11:44:00;;;;;;;0.30;0.30;;;;;;;;;;4970860;28;20233;-73
2024/01/07 11:46:32;;;;;;;0.20;0.20;;;;;;;;;;4970532;28;20257;-73
2024/01/07 11:48:59;;;;;;;0.30;0.30;;;;;;;;;;4979942;28;20221;-72
2024/01/07 11:51:30;;;;;;;0.30;0.30;;;;;;;;;;4970023;28;20240;-70
2024/01/07 11:53:59;;;;;;;0.30;0.30;;;;;;;;;;4971710;28;20229;-70
2024/01/07 11:56:26;;;;;;;0.30;0.30;;;;;;;;;;4968764;28;20233;-73
2024/01/07 11:58:53;;;;;;;0.50;0.50;;;;;;;;;;4969507;28;20609;-73
2024/01/07 12:01:19;;;;;;;0.30;0.30;;;;;;;;;;4966474;28;20267;-71
2024/01/07 12:03:46;;;;;;;0.30;0.30;;;;;;;;;;5002386;28;20726;-73
2024/01/07 12:06:13;;;;;;;0.30;0.30;;;;;;;;;;4967271;28;20879;-71
2024/01/07 12:08:41;;;;;;;0.30;0.30;;;;;;;;;;4970791;28;20728;-71
2024/01/07 12:11:08;;;;;;;0.33;0.30;;;;;;;;;;4964838;28;20237;-71
2024/01/07 12:13:35;;;;;;;0.30;0.30;;;;;;;;;;4968463;28;20237;-76
2024/01/07 12:16:03;;;;;;;0.30;0.30;;;;;;;;;;4971881;28;20237;-75
2024/01/07 12:18:31;;;;;;;0.30;0.30;;;;;;;;;;5003415;28;20253;-73
2024/01/07 12:20:59;;;;;;;0.30;0.30;;;;;;;;;;4984896;28;20740;-75
2024/01/07 12:23:26;;;;;;;0.20;0.20;;;;;;;;;;4964359;28;20341;-76
2024/01/07 12:26:06;;;;;;;0.30;0.30;;;;;;;;;;4976018;28;20241;-73
2024/01/07 12:28:32;;;;;;;0.30;0.30;;;;;;;;;;5005958;28;20713;-73
2024/01/07 12:31:01;;;;;;;0.40;0.40;;;;;;;;;;4974961;28;20229;-73
2024/01/07 12:33:29;;;;;;;0.30;0.30;;;;;;;;;;4975154;28;20588;-72
2024/01/07 12:35:57;;;;;;;0.20;0.20;;;;;;;;;;4972497;28;20237;-77
2024/01/07 12:38:24;;;;;;;0.20;0.20;;;;;;;;;;4974993;28;20869;-72
2024/01/07 12:40:52;;;;;;;0.30;0.30;;;;;;;;;;4978420;28;20229;-75
2024/01/07 12:43:19;;;;;;;0.30;0.30;;;;;;;;;;4978979;28;20617;-75
2024/01/07 12:45:47;;;;;;;0.47;0.47;;;;;;;;;;4976345;28;20318;-74
2024/01/07 12:48:14;;;;;;;0.30;0.30;;;;;;;;;;4975548;28;20245;-74
2024/01/07 12:50:41;;;;;;;0.37;0.37;;;;;;;;;;4991519;28;20260;-73
2024/01/07 12:53:08;;;;;;;0.20;0.20;;;;;;;;;;4975555;28;20608;-74
2024/01/07 12:55:35;;;;;;;0.20;0.20;;;;;;;;;;4976506;28;20233;-74
2024/01/07 12:58:02;;;;;;;1.80;1.70;;;;;;;;;;4972741;28;20225;-74
2024/01/07 13:00:29;;;;;;;0.27;0.27;;;;;;;;;;4978241;28;20324;-76
2024/01/07 13:02:55;;;;;;;0.20;0.20;;;;;;;;;;4992406;28;20239;-79
2024/01/07 13:05:26;;;;;;;0.30;0.30;;;;;;;;;;4977855;28;20233;-74
2024/01/07 13:07:53;;;;;;;0.20;0.20;;;;;;;;;;4976393;28;20225;-74
2024/01/07 13:10:20;;;;;;;0.20;0.20;;;;;;;;;;4975476;28;20230;-75
2024/01/07 13:12:47;;;;;;;0.30;0.30;;;;;;;;;;4974246;28;20230;-75
2024/01/07 13:15:18;;;;;;;0.30;0.30;;;;;;;;;;4975201;28;20245;-75
2024/01/07 13:17:45;;;;;;;0.30;0.30;;;;;;;;;;4977510;28;20913;-79
2024/01/07 13:20:11;;;;;;;0.20;0.20;;;;;;;;;;4975462;28;20714;-75
2024/01/07 13:22:38;;;;;;;0.30;0.30;;;;;;;;;;4976415;28;20280;-75
2024/01/07 13:25:06;;;;;;;0.20;0.20;;;;;;;;;;4995878;28;20232;-76
2024/01/07 13:27:33;;;;;;;0.30;0.30;;;;;;;;;;4996514;28;20230;-86
2024/01/07 13:30:03;;;;;;;0.50;0.50;;;;;;;;;;4984271;28;20234;-75
2024/01/07 13:32:30;;;;;;;0.30;0.30;;;;;;;;;;4976986;28;20248;-77
2024/01/07 13:34:56;;;;;;;0.30;0.30;;;;;;;;;;4979343;28;20613;-76
2024/01/07 13:37:23;;;;;;;0.20;0.20;;;;;;;;;;4978103;28;20594;-74
2024/01/07 13:39:49;;;;;;;0.33;0.33;;;;;;;;;;4978129;28;21352;-75
2024/01/07 13:42:16;;;;;;;0.30;0.30;;;;;;;;;;4975057;28;20631;-75
2024/01/07 13:44:46;;;;;;;0.30;0.30;;;;;;;;;;4975989;28;20232;-77
2024/01/07 13:47:14;;;;;;;0.20;0.20;;;;;;;;;;4977944;28;20240;-74
2024/01/07 13:49:41;;;;;;;0.30;0.30;;;;;;;;;;4978010;28;20245;-75
2024/01/07 13:52:07;;;;;;;0.20;0.20;;;;;;;;;;4979645;28;20225;-78
2024/01/07 13:54:34;;;;;;;0.30;0.30;;;;;;;;;;4994311;28;20229;-75
2024/01/07 13:57:01;;;;;;;0.30;0.30;;;;;;;;;;4979128;28;20709;-74
2024/01/07 13:59:28;;;;;;;0.40;0.40;;;;;;;;;;4979307;28;20234;-73
2024/01/07 14:02:02;;;;;;;0.30;0.30;;;;;;;;;;4992883;28;20713;-90
2024/01/07 14:04:29;;;;;;;0.23;0.23;;;;;;;;;;4983859;28;20248;-75
2024/01/07 14:10:48;;;;;;;0.20;0.20;;;;;;;;;;5007218;28;20259;-87
2024/01/07 14:13:22;;;;;;;0.47;0.47;;;;;;;;;;4999879;28;20792;-81
2024/01/07 14:15:48;;;;;;;0.30;0.30;;;;;;;;;;4988366;28;20233;-75
2024/01/07 14:18:17;;;;;;;0.30;0.30;;;;;;;;;;4991315;28;20627;-84
2024/01/07 14:20:44;;;;;;;0.40;0.40;;;;;;;;;;4999996;28;20246;-84
2024/01/07 14:23:10;;;;;;;0.50;0.50;;;;;;;;;;5015926;28;20225;-82
2024/01/07 14:25:37;;;;;;;0.40;0.40;;;;;;;;;;5001581;28;20245;-74
2024/01/07 14:28:04;;;;;;;0.30;0.30;;;;;;;;;;4987424;28;20256;-79
2024/01/07 14:30:31;;;;;;;0.50;0.50;;;;;;;;;;4991614;28;20232;-72
2024/01/07 14:32:57;;;;;;;0.20;0.20;;;;;;;;;;4983995;28;20233;-73
2024/01/07 14:35:26;;;;;;;0.30;0.30;;;;;;;;;;4982117;28;20237;-85
2024/01/07 14:37:53;;;;;;;0.47;0.47;;;;;;;;;;5020587;28;20643;-81
2024/01/07 14:40:26;;;;;;;0.27;0.27;;;;;;;;;;5002074;28;20233;-89
2024/01/07 14:42:57;;;;;;;0.20;0.20;;;;;;;;;;4979427;28;20336;-73
2024/01/07 14:45:26;;;;;;;0.27;0.27;;;;;;;;;;4993502;28;20237;-74
2024/01/07 14:47:53;;;;;;;0.40;0.40;;;;;;;;;;4991453;28;20254;-79